Time;durP1;ratioP1;P1;durP2;ratioP2;P2;SDS_P1;SDS_P2;PMS_P1;PMS_P2;Temp;Humidity;BMP_temperature;BMP_pressure;BME280_temperature;BME280_humidity;BME280_pressure;Samples;Min_cycle;Max_cycle;Signal;HPM_P1;HPM_P2
2023/10/29 00:02:17;;;;;;;5.93;2.60;;;;;;;7.87;100.00;99860.78;4992802;28;20212;-70
2023/10/29 00:04:44;;;;;;;5.73;2.27;;;;;;;7.85;99.82;99853.22;4990510;28;20227;-71
2023/10/29 00:07:10;;;;;;;5.03;2.30;;;;;;;7.84;100.00;99846.44;4989249;28;20320;-70
2023/10/29 00:09:36;;;;;;;5.33;2.70;;;;;;;7.85;100.00;99839.28;4991185;28;20842;-70
2023/10/29 00:12:05;;;;;;;5.37;2.83;;;;;;;7.83;100.00;99839.63;4992324;28;21111;-71
2023/10/29 00:14:31;;;;;;;6.30;2.40;;;;;;;7.83;100.00;99841.50;4989825;28;21512;-71
2023/10/29 00:16:57;;;;;;;9.43;2.87;;;;;;;7.81;100.00;99839.19;4993457;28;20209;-72
2023/10/29 00:19:24;;;;;;;2.83;2.50;;;;;;;7.81;100.00;99833.94;4991386;28;20717;-71
2023/10/29 00:21:50;;;;;;;5.43;2.40;;;;;;;7.80;100.00;99832.41;4992063;28;20203;-70
2023/10/29 00:24:17;;;;;;;5.43;2.90;;;;;;;7.80;100.00;99839.50;4991544;28;20471;-71
2023/10/29 00:26:43;;;;;;;9.90;3.20;;;;;;;7.79;100.00;99830.88;4991874;28;20220;-71
2023/10/29 00:29:11;;;;;;;2.20;2.00;;;;;;;7.79;100.00;99830.09;4991314;28;20227;-69
2023/10/29 00:31:37;;;;;;;2.67;2.20;;;;;;;7.78;100.00;99829.34;4970349;28;20545;-71
2023/10/29 00:34:04;;;;;;;4.53;2.13;;;;;;;7.79;100.00;99824.84;4970826;28;20212;-71
2023/10/29 00:36:31;;;;;;;4.97;2.30;;;;;;;7.79;100.00;99819.56;4968604;28;20289;-71
2023/10/29 00:38:57;;;;;;;7.23;2.00;;;;;;;7.78;100.00;99818.81;4990566;28;20313;-71
2023/10/29 00:41:24;;;;;;;4.47;1.90;;;;;;;7.77;100.00;99809.38;4972061;28;20214;-72
2023/10/29 00:43:51;;;;;;;3.60;2.30;;;;;;;7.77;100.00;99806.00;4988468;28;21589;-70
2023/10/29 00:46:20;;;;;;;4.40;2.20;;;;;;;7.75;100.00;99808.94;4990047;28;20608;-70
2023/10/29 00:48:48;;;;;;;7.70;2.27;;;;;;;7.75;100.00;99816.84;4970676;28;20612;-70
2023/10/29 00:51:15;;;;;;;7.03;2.23;;;;;;;7.74;100.00;99817.94;4994089;28;21317;-70
2023/10/29 00:53:42;;;;;;;5.83;2.10;;;;;;;7.73;100.00;99813.00;4989718;28;20218;-70
2023/10/29 00:56:08;;;;;;;2.67;2.23;;;;;;;7.71;100.00;99808.06;4972516;28;20226;-71
2023/10/29 00:58:35;;;;;;;7.53;2.27;;;;;;;7.72;100.00;99812.22;4988764;28;23050;-70
2023/10/29 01:01:02;;;;;;;3.17;1.90;;;;;;;7.71;100.00;99813.31;4969019;28;20240;-70
2023/10/29 01:03:30;;;;;;;2.30;1.93;;;;;;;7.73;100.00;99815.63;4991471;28;20329;-69
2023/10/29 01:05:57;;;;;;;4.73;2.23;;;;;;;7.72;100.00;99806.22;4967810;28;20207;-70
2023/10/29 01:08:25;;;;;;;8.07;2.20;;;;;;;7.75;100.00;99818.69;4987024;28;20243;-69
2023/10/29 01:10:52;;;;;;;3.77;2.10;;;;;;;7.78;100.00;99810.16;4964732;28;20227;-71
2023/10/29 01:13:18;;;;;;;4.57;2.00;;;;;;;7.81;100.00;99812.16;4988476;28;20217;-70
2023/10/29 01:15:46;;;;;;;5.87;2.00;;;;;;;7.85;100.00;99810.38;4969604;28;20339;-70
2023/10/29 01:18:12;;;;;;;8.27;2.90;;;;;;;7.90;100.00;99807.56;4973008;28;20252;-71
2023/10/29 01:20:40;;;;;;;5.73;2.70;;;;;;;7.94;100.00;99814.47;4987761;28;20209;-71
2023/10/29 01:23:06;;;;;;;7.67;2.20;;;;;;;8.00;100.00;99815.03;4987835;28;20204;-70
2023/10/29 01:25:33;;;;;;;6.30;2.20;;;;;;;8.04;100.00;99815.91;4972379;28;20215;-70
2023/10/29 01:28:00;;;;;;;7.03;2.60;;;;;;;8.09;100.00;99818.31;4988813;28;20610;-71
2023/10/29 01:30:26;;;;;;;7.53;2.83;;;;;;;8.13;100.00;99806.06;4990500;28;20707;-72
2023/10/29 01:32:52;;;;;;;9.03;3.10;;;;;;;8.19;100.00;99802.13;4969796;28;20220;-70
2023/10/29 01:35:19;;;;;;;8.37;2.83;;;;;;;8.23;100.00;99795.91;4988484;28;21278;-71
2023/10/29 01:37:46;;;;;;;5.83;3.10;;;;;;;8.29;100.00;99806.97;4972974;28;20238;-69
2023/10/29 01:40:13;;;;;;;7.03;2.93;;;;;;;8.34;100.00;99794.38;4985204;28;20809;-72
2023/10/29 01:42:40;;;;;;;6.00;3.13;;;;;;;8.38;100.00;99791.88;4969190;28;21208;-70
2023/10/29 01:45:07;;;;;;;7.93;3.30;;;;;;;8.43;100.00;99786.38;4969822;28;20914;-70
2023/10/29 01:47:33;;;;;;;10.60;4.03;;;;;;;8.50;100.00;99784.72;4968489;28;20237;-71
2023/10/29 01:50:00;;;;;;;6.10;3.73;;;;;;;8.54;100.00;99782.97;4967415;28;20228;-71
2023/10/29 01:52:26;;;;;;;4.87;3.13;;;;;;;8.59;100.00;99785.38;4987797;28;20710;-70
2023/10/29 01:54:54;;;;;;;6.30;3.70;;;;;;;8.62;100.00;99776.81;4986549;28;20704;-71
2023/10/29 01:57:20;;;;;;;7.67;3.63;;;;;;;8.66;100.00;99776.91;4985634;28;20234;-70
2023/10/29 01:59:46;;;;;;;7.33;3.97;;;;;;;8.69;100.00;99773.63;4969972;28;20240;-71
2023/10/29 02:02:13;;;;;;;10.57;4.33;;;;;;;8.73;100.00;99772.63;4965710;28;20319;-70
2023/10/29 02:04:39;;;;;;;8.00;4.13;;;;;;;8.76;100.00;99777.22;4985996;28;20210;-72
2023/10/29 02:07:07;;;;;;;9.33;4.07;;;;;;;8.79;100.00;99773.94;4970983;28;20834;-71
2023/10/29 02:09:33;;;;;;;12.33;4.63;;;;;;;8.83;100.00;99776.66;4972674;28;20577;-71
2023/10/29 02:12:02;;;;;;;7.97;4.10;;;;;;;8.87;100.00;99774.91;4987115;28;20231;-71
2023/10/29 02:14:29;;;;;;;7.37;3.73;;;;;;;8.89;100.00;99772.69;4986421;28;20822;-70
2023/10/29 02:16:56;;;;;;;7.87;4.30;;;;;;;8.92;100.00;99774.69;4975553;28;20930;-71
2023/10/29 02:19:22;;;;;;;9.47;4.37;;;;;;;8.95;100.00;99776.66;4973731;28;20208;-70
2023/10/29 02:21:49;;;;;;;6.90;3.97;;;;;;;8.97;100.00;99780.47;4991134;28;20603;-70
2023/10/29 02:24:16;;;;;;;8.70;4.47;;;;;;;8.99;100.00;99780.91;4990035;28;20707;-71
2023/10/29 02:26:43;;;;;;;9.63;4.10;;;;;;;9.02;100.00;99780.25;4970654;28;20214;-72
2023/10/29 02:29:09;;;;;;;6.27;3.83;;;;;;;9.04;100.00;99777.25;4990199;28;20210;-70
2023/10/29 02:31:36;;;;;;;7.33;4.20;;;;;;;9.06;100.00;99770.56;4988998;28;21148;-71
2023/10/29 02:34:03;;;;;;;5.23;4.43;;;;;;;9.08;100.00;99773.66;4971257;28;20211;-70
2023/10/29 02:36:29;;;;;;;6.93;4.33;;;;;;;9.10;100.00;99766.16;4991393;28;20269;-70
2023/10/29 02:38:57;;;;;;;10.23;4.23;;;;;;;9.13;100.00;99772.63;4968609;28;20252;-70
2023/10/29 02:41:25;;;;;;;7.50;4.40;;;;;;;9.14;100.00;99769.66;4968672;28;20260;-71
2023/10/29 02:43:53;;;;;;;11.13;4.17;;;;;;;9.18;100.00;99777.66;4988854;28;20207;-70
2023/10/29 02:46:19;;;;;;;10.23;4.50;;;;;;;9.20;100.00;99767.53;4988987;28;21722;-71
2023/10/29 02:48:46;;;;;;;5.37;3.93;;;;;;;9.23;100.00;99782.69;4991946;28;20242;-71
2023/10/29 02:51:13;;;;;;;8.70;4.20;;;;;;;9.26;100.00;99779.41;4984759;28;20242;-71
2023/10/29 02:53:39;;;;;;;7.20;3.60;;;;;;;9.27;100.00;99775.66;4968085;28;20301;-71
2023/10/29 02:56:07;;;;;;;10.43;4.33;;;;;;;9.30;100.00;99785.50;4968557;28;20739;-71
2023/10/29 02:58:35;;;;;;;12.43;4.27;;;;;;;9.32;100.00;99791.97;4967799;28;20227;-72
2023/10/29 03:01:05;;;;;;;13.13;3.73;;;;;;;9.34;100.00;99800.34;4987115;28;20215;-70
2023/10/29 03:03:32;;;;;;;11.10;4.20;;;;;;;9.37;100.00;99801.53;4964985;28;20200;-71
2023/10/29 03:05:58;;;;;;;8.00;3.77;;;;;;;9.40;100.00;99811.38;4988720;28;20206;-70
2023/10/29 03:08:25;;;;;;;7.17;3.93;;;;;;;9.43;100.00;99816.75;4992654;28;20605;-71
2023/10/29 03:10:51;;;;;;;8.33;4.47;;;;;;;9.44;100.00;99810.41;4969942;28;20676;-71
2023/10/29 03:13:18;;;;;;;6.90;3.73;;;;;;;9.48;100.00;99813.88;4975628;28;21318;-71
2023/10/29 03:15:45;;;;;;;6.80;3.90;;;;;;;9.52;100.00;99814.00;4994210;28;20795;-72
2023/10/29 03:18:13;;;;;;;11.70;4.03;;;;;;;9.54;100.00;99803.88;4989133;28;20578;-70
2023/10/29 03:20:39;;;;;;;7.80;4.00;;;;;;;9.57;100.00;99813.75;4973293;28;20207;-70
2023/10/29 03:23:06;;;;;;;6.97;3.93;;;;;;;9.58;100.00;99813.38;4992785;28;21988;-70
2023/10/29 03:25:33;;;;;;;5.43;3.90;;;;;;;9.60;100.00;99813.06;4991829;28;20782;-70
2023/10/29 03:27:59;;;;;;;13.73;4.13;;;;;;;9.63;100.00;99809.75;4994318;28;20922;-70
2023/10/29 03:30:25;;;;;;;10.50;4.70;;;;;;;9.64;100.00;99812.03;4971610;28;20219;-69
2023/10/29 03:32:53;;;;;;;5.30;3.90;;;;;;;9.66;100.00;99807.22;4985807;28;21242;-70
2023/10/29 03:35:20;;;;;;;8.63;4.10;;;;;;;9.68;100.00;99798.97;4992150;28;21495;-70
2023/10/29 03:37:46;;;;;;;4.43;3.40;;;;;;;9.69;100.00;99803.88;4992348;28;20892;-71
2023/10/29 03:40:12;;;;;;;8.10;4.10;;;;;;;9.70;100.00;99794.91;4992452;28;20584;-71
2023/10/29 03:42:39;;;;;;;5.13;3.40;;;;;;;9.71;100.00;99796.41;4971658;28;20588;-70
2023/10/29 03:45:07;;;;;;;9.37;3.70;;;;;;;9.75;100.00;99804.41;4988907;28;20203;-71
2023/10/29 03:47:34;;;;;;;5.20;3.47;;;;;;;9.75;100.00;99797.28;4993098;28;20266;-71
2023/10/29 03:50:02;;;;;;;10.53;3.53;;;;;;;9.77;100.00;99797.69;4972231;28;20227;-71
2023/10/29 03:52:28;;;;;;;6.40;3.33;;;;;;;9.78;100.00;99795.84;4989784;28;20211;-71
2023/10/29 03:54:53;;;;;;;4.67;3.23;;;;;;;9.80;100.00;99796.25;4989952;28;20216;-71
2023/10/29 03:57:20;;;;;;;5.67;2.97;;;;;;;9.82;100.00;99794.81;4991056;28;20242;-70
2023/10/29 03:59:46;;;;;;;4.73;2.80;;;;;;;9.83;100.00;99783.16;4992370;28;20414;-71
2023/10/29 04:02:13;;;;;;;8.90;3.43;;;;;;;9.84;100.00;99779.41;4989444;28;20727;-70
2023/10/29 04:04:40;;;;;;;8.53;3.03;;;;;;;9.85;100.00;99772.28;4987833;28;20200;-70
2023/10/29 04:07:08;;;;;;;5.90;2.83;;;;;;;9.87;100.00;99748.97;4991655;28;20234;-71
2023/10/29 04:09:35;;;;;;;6.43;3.27;;;;;;;9.88;100.00;99751.25;4963357;28;20433;-70
2023/10/29 04:12:01;;;;;;;7.53;3.43;;;;;;;9.90;100.00;99743.03;4984496;28;20687;-71
2023/10/29 04:14:27;;;;;;;5.47;2.77;;;;;;;9.91;100.00;99728.72;4986570;28;20857;-70
2023/10/29 04:16:54;;;;;;;5.83;3.33;;;;;;;9.92;100.00;99730.25;4966358;28;20607;-70
2023/10/29 04:19:20;;;;;;;7.17;2.87;;;;;;;9.92;100.00;99722.34;4988428;28;20207;-70
2023/10/29 04:21:46;;;;;;;4.30;3.10;;;;;;;9.92;100.00;99722.34;4991650;28;20218;-71
2023/10/29 04:24:14;;;;;;;7.23;2.90;;;;;;;9.92;100.00;99715.22;4992525;28;20216;-70
2023/10/29 04:26:41;;;;;;;4.90;2.90;;;;;;;9.94;100.00;99712.22;4989175;28;20215;-70
2023/10/29 04:29:07;;;;;;;4.80;2.63;;;;;;;9.95;100.00;99719.03;4992406;28;20239;-70
2023/10/29 04:31:33;;;;;;;5.23;2.77;;;;;;;9.96;100.00;99721.34;4990490;28;20865;-70
2023/10/29 04:33:59;;;;;;;5.30;3.00;;;;;;;9.96;100.00;99710.78;4992951;28;20459;-71
2023/10/29 04:36:26;;;;;;;12.27;3.27;;;;;;;9.97;100.00;99711.53;4990292;28;20226;-72
2023/10/29 04:38:52;;;;;;;6.27;3.27;;;;;;;9.98;100.00;99705.16;4989764;28;20231;-71
2023/10/29 04:41:20;;;;;;;4.83;2.73;;;;;;;9.99;100.00;99711.97;4986193;28;20577;-70
2023/10/29 04:43:46;;;;;;;5.63;3.17;;;;;;;10.01;100.00;99705.25;4988474;28;20211;-71
2023/10/29 04:46:13;;;;;;;10.10;3.10;;;;;;;10.02;100.00;99704.13;4991375;28;20218;-70
2023/10/29 04:48:40;;;;;;;9.67;3.30;;;;;;;10.03;100.00;99695.13;4987751;28;21843;-71
2023/10/29 04:51:07;;;;;;;6.77;2.83;;;;;;;10.05;100.00;99702.72;4988858;28;20230;-70
2023/10/29 04:53:34;;;;;;;8.60;2.83;;;;;;;10.05;100.00;99692.91;4990374;28;20215;-69
2023/10/29 04:56:00;;;;;;;3.70;2.60;;;;;;;10.07;100.00;99688.09;4986994;28;20211;-70
2023/10/29 04:58:28;;;;;;;7.67;2.60;;;;;;;10.08;100.00;99686.19;4991611;28;20564;-69
2023/10/29 05:00:56;;;;;;;4.67;2.50;;;;;;;10.08;100.00;99689.59;4987837;28;21365;-70
2023/10/29 05:03:22;;;;;;;6.30;2.97;;;;;;;10.10;100.00;99684.00;4986907;28;20276;-71
2023/10/29 05:05:49;;;;;;;6.60;2.70;;;;;;;10.11;100.00;99685.53;4988282;28;20210;-70
2023/10/29 05:08:15;;;;;;;5.70;2.40;;;;;;;10.13;100.00;99688.56;4989425;28;20562;-70
2023/10/29 05:10:43;;;;;;;11.00;2.87;;;;;;;10.12;100.00;99679.13;4987705;28;21508;-69
2023/10/29 05:13:09;;;;;;;40.03;19.73;;;;;;;10.13;100.00;99675.38;4989452;28;20215;-70
2023/10/29 05:15:37;;;;;;;27.27;13.73;;;;;;;10.15;100.00;99675.81;4989650;28;21703;-69
2023/10/29 05:18:04;;;;;;;13.37;8.47;;;;;;;10.16;100.00;99675.47;4972752;28;20683;-71
2023/10/29 05:20:30;;;;;;;7.33;3.87;;;;;;;10.16;100.00;99674.69;4991456;28;21656;-70
2023/10/29 05:22:57;;;;;;;7.67;4.07;;;;;;;10.17;100.00;99670.94;4990608;28;20811;-70
2023/10/29 05:25:24;;;;;;;4.37;3.70;;;;;;;10.17;100.00;99669.09;4989803;28;22376;-70
2023/10/29 05:27:51;;;;;;;8.70;4.40;;;;;;;10.19;100.00;99669.50;4990194;28;20236;-70
2023/10/29 05:30:17;;;;;;;5.23;3.70;;;;;;;10.20;100.00;99675.56;4985620;28;20217;-70
2023/10/29 05:32:45;;;;;;;8.10;4.13;;;;;;;10.22;100.00;99674.09;4985850;28;20948;-71
2023/10/29 05:35:11;;;;;;;8.00;5.80;;;;;;;10.23;100.00;99661.66;4987683;28;20608;-70
2023/10/29 05:37:37;;;;;;;7.27;4.10;;;;;;;10.24;100.00;99655.28;4984475;28;20231;-70
2023/10/29 05:40:07;;;;;;;9.83;5.33;;;;;;;10.25;100.00;99657.56;4990008;28;21254;-70
2023/10/29 05:42:33;;;;;;;8.17;5.03;;;;;;;10.25;100.00;99662.09;4986839;28;20223;-71
2023/10/29 05:45:00;;;;;;;8.13;5.30;;;;;;;10.27;100.00;99662.50;4985727;28;20246;-70
2023/10/29 05:47:27;;;;;;;6.33;4.13;;;;;;;10.27;100.00;99657.22;4989999;28;21626;-70
2023/10/29 05:49:55;;;;;;;5.23;3.47;;;;;;;10.28;100.00;99659.53;4962504;28;20215;-70
2023/10/29 05:52:22;;;;;;;4.80;2.90;;;;;;;10.30;100.00;99659.94;4991241;28;20226;-70
2023/10/29 05:54:49;;;;;;;6.53;2.57;;;;;;;10.32;100.00;99659.59;4979630;28;20211;-69
2023/10/29 05:57:16;;;;;;;6.30;2.80;;;;;;;10.34;100.00;99662.63;4982785;28;20949;-70
2023/10/29 05:59:42;;;;;;;4.50;2.87;;;;;;;10.35;100.00;99657.03;4988856;28;21004;-71
2023/10/29 06:02:09;;;;;;;2.63;2.40;;;;;;;10.36;100.00;99655.16;4987685;28;20204;-70
2023/10/29 06:04:36;;;;;;;4.67;2.90;;;;;;;10.38;100.00;99652.94;4988101;28;20974;-70
2023/10/29 06:07:03;;;;;;;5.83;2.63;;;;;;;10.39;100.00;99649.19;4966897;28;20215;-71
2023/10/29 06:09:30;;;;;;;7.07;4.03;;;;;;;10.40;100.00;99651.47;4986803;28;20216;-70
2023/10/29 06:11:56;;;;;;;4.30;2.90;;;;;;;10.42;99.57;99648.50;4985489;28;21833;-70
2023/10/29 06:14:22;;;;;;;5.47;2.90;;;;;;;10.45;99.67;99642.53;4988883;28;20226;-71
2023/10/29 06:16:55;;;;;;;4.47;2.40;;;;;;;10.47;99.69;99658.78;4978811;28;20265;-70
2023/10/29 06:19:22;;;;;;;5.03;2.10;;;;;;;10.48;99.26;99657.66;4991428;28;20218;-71
2023/10/29 06:21:48;;;;;;;2.77;1.90;;;;;;;10.50;99.78;99647.53;5023888;28;20202;-71
2023/10/29 06:24:16;;;;;;;4.60;2.80;;;;;;;10.51;100.00;99644.53;5036711;28;20470;-71
2023/10/29 06:26:42;;;;;;;4.70;2.50;;;;;;;10.54;100.00;99632.53;5033252;28;20212;-71
2023/10/29 06:29:08;;;;;;;3.63;2.30;;;;;;;10.56;99.16;99646.91;5036621;28;20354;-71
2023/10/29 06:31:35;;;;;;;6.03;2.30;;;;;;;10.58;98.76;99649.97;5038286;28;20707;-71
2023/10/29 06:34:02;;;;;;;6.30;2.50;;;;;;;10.60;98.92;99650.38;5037387;28;20619;-72
2023/10/29 06:36:29;;;;;;;7.37;2.70;;;;;;;10.62;99.26;99657.97;5037675;28;20289;-71
2023/10/29 06:38:56;;;;;;;4.00;2.03;;;;;;;10.65;99.74;99660.66;5035642;28;20218;-71
2023/10/29 06:41:23;;;;;;;5.97;2.47;;;;;;;10.66;99.62;99653.53;5042593;28;20256;-71
2023/10/29 06:43:49;;;;;;;4.93;2.47;;;;;;;10.67;98.93;99655.78;5043155;28;20595;-72
2023/10/29 06:46:16;;;;;;;2.97;2.03;;;;;;;10.69;98.27;99656.22;5042611;28;20219;-71
2023/10/29 06:48:42;;;;;;;5.63;2.20;;;;;;;10.71;98.75;99651.34;5041314;28;20225;-69
2023/10/29 06:51:09;;;;;;;3.87;2.47;;;;;;;10.75;98.06;99651.41;5041463;28;20215;-70
2023/10/29 06:53:35;;;;;;;2.00;1.70;;;;;;;10.76;97.75;99647.69;5040334;28;20706;-72
2023/10/29 06:56:02;;;;;;;4.97;2.17;;;;;;;10.79;97.12;99646.97;5020777;28;20210;-71
2023/10/29 06:58:29;;;;;;;2.77;1.63;;;;;;;10.81;97.84;99632.31;5042851;28;20257;-72
2023/10/29 07:00:56;;;;;;;3.40;1.97;;;;;;;10.84;97.81;99630.84;5037926;28;20208;-70
2023/10/29 07:03:23;;;;;;;8.30;2.23;;;;;;;10.86;97.33;99633.88;5043866;28;20209;-71
2023/10/29 07:05:49;;;;;;;6.37;2.43;;;;;;;10.89;97.23;99630.56;5035310;28;20734;-72
2023/10/29 07:08:15;;;;;;;5.90;2.40;;;;;;;10.92;97.58;99629.88;5040717;28;20225;-72
2023/10/29 07:10:42;;;;;;;6.03;2.60;;;;;;;10.94;98.15;99620.47;5041681;28;20595;-72
2023/10/29 07:13:09;;;;;;;4.73;2.90;;;;;;;10.97;98.04;99613.75;5039776;28;20299;-72
2023/10/29 07:15:36;;;;;;;4.60;2.63;;;;;;;11.00;97.36;99613.78;5039553;28;20205;-71
2023/10/29 07:18:03;;;;;;;7.60;2.40;;;;;;;11.02;97.68;99616.09;5039400;28;20245;-70
2023/10/29 07:20:30;;;;;;;2.07;1.87;;;;;;;11.04;97.79;99622.56;5038386;28;20574;-71
2023/10/29 07:22:56;;;;;;;3.50;2.07;;;;;;;11.06;97.38;99636.16;5039902;28;20231;-72
2023/10/29 07:25:22;;;;;;;2.90;1.87;;;;;;;11.09;97.63;99632.84;5040082;28;20206;-71
2023/10/29 07:27:49;;;;;;;3.80;1.67;;;;;;;11.12;97.16;99615.50;5039725;28;20727;-72
2023/10/29 07:30:15;;;;;;;4.33;2.03;;;;;;;11.14;97.09;99602.72;5041994;28;20272;-70
2023/10/29 07:32:43;;;;;;;6.57;1.80;;;;;;;11.18;96.71;99596.34;5038886;28;20229;-72
2023/10/29 07:35:09;;;;;;;4.60;1.97;;;;;;;11.22;96.51;99585.84;5019513;28;20834;-70
2023/10/29 07:37:35;;;;;;;3.47;1.63;;;;;;;11.26;97.58;99576.09;5040468;28;20231;-71
2023/10/29 07:40:02;;;;;;;4.37;2.00;;;;;;;11.31;97.04;99584.50;5037420;28;20217;-72
2023/10/29 07:42:28;;;;;;;3.50;2.00;;;;;;;11.35;96.38;99585.31;5034973;28;20208;-72
2023/10/29 07:44:54;;;;;;;4.17;1.83;;;;;;;11.41;95.47;99583.91;5019256;28;20602;-72
2023/10/29 07:47:21;;;;;;;2.93;1.70;;;;;;;11.47;95.76;99592.28;5035394;28;20227;-71
2023/10/29 07:49:48;;;;;;;5.87;1.77;;;;;;;11.51;95.02;99593.88;5039733;28;20205;-72
2023/10/29 07:52:15;;;;;;;4.40;1.80;;;;;;;11.57;95.37;99599.63;5038385;28;20265;-72
2023/10/29 07:54:42;;;;;;;6.27;2.23;;;;;;;11.62;94.98;99602.75;5038602;28;20218;-71
2023/10/29 07:57:08;;;;;;;3.53;1.80;;;;;;;11.67;94.33;99612.25;5036214;28;20257;-72
2023/10/29 07:59:35;;;;;;;3.97;1.90;;;;;;;11.69;93.56;99610.78;5040953;28;20207;-72
2023/10/29 08:02:01;;;;;;;15.83;5.77;;;;;;;11.74;93.93;99615.03;5035241;28;20201;-71
2023/10/29 08:04:27;;;;;;;6.50;2.40;;;;;;;11.76;93.94;99613.53;5041003;28;20210;-72
2023/10/29 08:06:55;;;;;;;4.47;1.90;;;;;;;11.79;94.05;99620.75;5038197;28;20254;-69
2023/10/29 08:09:22;;;;;;;3.83;1.70;;;;;;;11.81;93.21;99618.50;5038928;28;20207;-72
2023/10/29 08:11:49;;;;;;;2.23;1.77;;;;;;;11.84;93.40;99630.28;5034357;28;20524;-70
2023/10/29 08:14:15;;;;;;;4.33;1.87;;;;;;;11.84;93.04;99619.69;5040014;28;20207;-72
2023/10/29 08:16:42;;;;;;;2.97;1.87;;;;;;;11.86;92.87;99606.88;5036835;28;20211;-70
2023/10/29 08:19:08;;;;;;;5.47;1.60;;;;;;;11.86;91.91;99626.16;5035398;28;20242;-72
2023/10/29 08:21:35;;;;;;;4.20;1.67;;;;;;;11.86;92.02;99626.16;5019040;28;20196;-71
2023/10/29 08:24:03;;;;;;;3.07;1.40;;;;;;;11.87;92.11;99625.06;5037463;28;20211;-71
2023/10/29 08:26:32;;;;;;;3.87;1.63;;;;;;;11.88;91.52;99639.81;5039235;28;20210;-72
2023/10/29 08:28:58;;;;;;;4.50;1.60;;;;;;;11.89;92.94;99635.25;5037125;28;20256;-72
2023/10/29 08:31:24;;;;;;;3.43;1.50;;;;;;;11.90;92.64;99631.50;5017587;28;20215;-71
2023/10/29 08:33:51;;;;;;;3.53;1.53;;;;;;;11.91;93.22;99625.09;5037990;28;20203;-72
2023/10/29 08:36:17;;;;;;;2.33;1.40;;;;;;;11.92;93.09;99631.91;5038500;28;20202;-72
2023/10/29 08:38:44;;;;;;;2.70;1.67;;;;;;;11.93;91.88;99634.19;5035337;28;20226;-72
2023/10/29 08:41:15;;;;;;;7.87;2.97;;;;;;;11.94;91.84;99629.66;5035614;28;20206;-70
2023/10/29 08:43:42;;;;;;;7.10;2.00;;;;;;;11.95;92.44;99631.94;5037142;28;20211;-71
2023/10/29 08:46:08;;;;;;;3.60;1.83;;;;;;;11.98;92.67;99633.13;5037171;28;20289;-71
2023/10/29 08:48:33;;;;;;;2.40;1.40;;;;;;;11.99;91.60;99630.13;5038492;28;20412;-72
2023/10/29 08:51:00;;;;;;;3.27;1.67;;;;;;;12.01;91.43;99640.34;5035637;28;20571;-71
2023/10/29 08:53:26;;;;;;;5.13;1.40;;;;;;;12.00;91.84;99631.66;5036693;28;20223;-72
2023/10/29 08:55:53;;;;;;;3.30;1.40;;;;;;;12.05;92.22;99634.00;5037973;28;20693;-71
2023/10/29 08:58:21;;;;;;;3.17;1.70;;;;;;;12.07;93.02;99636.28;5037516;28;20222;-70
2023/10/29 09:00:47;;;;;;;2.73;1.30;;;;;;;12.09;91.53;99632.16;5037308;28;20206;-72
2023/10/29 09:03:14;;;;;;;3.17;1.20;;;;;;;12.12;91.89;99622.75;5035981;28;20214;-71
2023/10/29 09:05:41;;;;;;;4.23;1.53;;;;;;;12.15;91.72;99622.78;5035711;28;20222;-72
2023/10/29 09:08:07;;;;;;;3.40;1.80;;;;;;;12.18;90.50;99618.66;5033834;28;21556;-71
2023/10/29 09:10:36;;;;;;;2.17;1.33;;;;;;;12.21;89.68;99612.66;5037332;28;20211;-70
2023/10/29 09:13:03;;;;;;;2.70;1.43;;;;;;;12.26;89.28;99615.75;5036278;28;20243;-71
2023/10/29 09:15:31;;;;;;;2.57;1.50;;;;;;;12.30;90.56;99616.56;5038683;28;20211;-72
2023/10/29 09:17:57;;;;;;;4.80;1.77;;;;;;;12.35;90.14;99612.81;5034921;28;20310;-69
2023/10/29 09:20:23;;;;;;;2.60;1.70;;;;;;;12.41;89.65;99603.44;5040116;28;20225;-72
2023/10/29 09:22:50;;;;;;;2.07;1.67;;;;;;;12.47;90.71;99602.00;5036595;28;20199;-71
2023/10/29 09:25:16;;;;;;;6.63;1.60;;;;;;;12.53;88.72;99600.56;5040986;28;20211;-71
2023/10/29 09:27:42;;;;;;;2.47;1.30;;;;;;;12.61;90.02;99591.56;5042123;28;20731;-72
2023/10/29 09:30:10;;;;;;;1.53;1.33;;;;;;;12.71;86.92;99596.97;5035503;28;20215;-71
2023/10/29 09:32:38;;;;;;;3.00;1.33;;;;;;;12.79;84.03;99598.56;5036436;28;20807;-72
2023/10/29 09:35:05;;;;;;;3.17;1.43;;;;;;;12.88;85.28;99600.94;5035096;28;20618;-72
2023/10/29 09:37:32;;;;;;;1.87;1.30;;;;;;;12.95;84.21;99593.81;5036338;28;20223;-70
2023/10/29 09:39:58;;;;;;;2.27;1.60;;;;;;;13.03;83.83;99598.09;5038040;28;20199;-70
2023/10/29 09:42:29;;;;;;;2.60;1.37;;;;;;;13.10;82.81;99592.09;5033593;28;20199;-72
2023/10/29 09:44:59;;;;;;;4.10;1.40;;;;;;;13.14;84.29;99592.91;5040312;28;20195;-71
2023/10/29 09:47:27;;;;;;;1.93;1.20;;;;;;;13.20;84.51;99597.47;5036607;28;20305;-72
2023/10/29 09:49:56;;;;;;;2.93;1.50;;;;;;;13.25;80.50;99601.69;5034102;28;20215;-70
2023/10/29 09:52:28;;;;;;;1.80;1.00;;;;;;;13.29;80.59;99605.91;5035166;28;20219;-70
2023/10/29 09:54:57;;;;;;;2.97;1.43;;;;;;;13.34;84.36;99610.84;5016622;28;21943;-72
2023/10/29 09:57:24;;;;;;;4.20;2.07;;;;;;;13.36;81.39;99616.53;5036123;28;20219;-72
2023/10/29 09:59:50;;;;;;;5.90;3.17;;;;;;;13.37;81.12;99619.97;5032762;28;20208;-69
2023/10/29 10:02:17;;;;;;;3.23;1.80;;;;;;;13.39;82.42;99620.34;5035699;28;20211;-70
2023/10/29 10:04:45;;;;;;;5.17;1.90;;;;;;;13.40;78.20;99633.25;5038321;28;20217;-72
2023/10/29 10:07:14;;;;;;;8.57;5.13;;;;;;;13.40;80.37;99646.50;5033929;28;20218;-72
2023/10/29 10:09:57;;;;;;;4.60;2.37;;;;;;;13.41;79.60;99648.03;5033408;28;20208;-71
2023/10/29 10:12:25;;;;;;;4.47;2.30;;;;;;;13.43;85.57;99629.88;5030247;28;20238;-72
2023/10/29 10:14:52;;;;;;;4.60;2.80;;;;;;;13.42;84.25;99619.63;5034272;28;20204;-71
2023/10/29 10:17:18;;;;;;;3.80;1.73;;;;;;;13.39;83.25;99618.47;5033518;28;20223;-72
2023/10/29 10:19:44;;;;;;;3.27;2.40;;;;;;;13.36;82.26;99590.03;5047013;23;20707;-73
2023/10/29 10:22:11;;;;;;;4.10;1.80;;;;;;;13.35;83.35;99595.72;5032503;28;20195;-73
2023/10/29 10:24:40;;;;;;;2.67;1.57;;;;;;;13.32;81.58;99586.63;5017944;28;20357;-74
2023/10/29 10:27:09;;;;;;;3.07;2.23;;;;;;;13.33;82.59;99584.69;5031897;28;20193;-74
2023/10/29 10:29:35;;;;;;;2.00;1.57;;;;;;;13.32;82.90;99581.31;5036539;28;20227;-74
2023/10/29 10:32:02;;;;;;;3.47;1.43;;;;;;;13.32;86.26;99589.25;5015698;28;20657;-73
2023/10/29 10:34:30;;;;;;;3.20;2.27;;;;;;;13.31;82.02;99585.06;5015644;28;21591;-74
2023/10/29 10:36:59;;;;;;;3.63;2.30;;;;;;;13.30;81.74;99602.09;5030465;28;20206;-73
2023/10/29 10:39:28;;;;;;;4.70;2.60;;;;;;;13.30;84.28;99599.47;5036389;28;20230;-73
2023/10/29 10:41:56;;;;;;;6.27;2.40;;;;;;;13.30;83.18;99591.50;5036669;28;20210;-73
2023/10/29 10:44:22;;;;;;;5.07;1.83;;;;;;;13.28;81.53;99600.94;5015540;28;20207;-73
2023/10/29 10:46:49;;;;;;;2.60;1.83;;;;;;;13.27;81.07;99604.72;5038642;28;20251;-73
2023/10/29 10:49:17;;;;;;;2.83;2.00;;;;;;;13.27;83.08;99610.03;5035068;28;20239;-73
2023/10/29 10:51:44;;;;;;;2.90;1.83;;;;;;;13.25;82.20;99607.75;5034590;28;20200;-74
2023/10/29 10:54:11;;;;;;;4.83;2.90;;;;;;;13.24;82.00;99616.09;5034539;28;21649;-73
2023/10/29 10:56:38;;;;;;;5.53;2.87;;;;;;;13.23;83.03;99606.59;5033350;28;20207;-74
2023/10/29 10:59:07;;;;;;;5.77;2.30;;;;;;;13.22;83.95;99610.38;5034534;28;20222;-73
2023/10/29 11:01:35;;;;;;;3.40;2.07;;;;;;;13.20;82.54;99612.63;5035226;28;20210;-73
2023/10/29 11:04:03;;;;;;;3.23;1.70;;;;;;;13.20;83.99;99615.28;5036017;28;20200;-73
2023/10/29 11:06:30;;;;;;;4.83;1.63;;;;;;;13.17;82.90;99623.97;5032555;28;20207;-74
2023/10/29 11:08:56;;;;;;;5.87;2.20;;;;;;;13.16;83.35;99633.03;5036824;28;20677;-73
2023/10/29 11:11:26;;;;;;;3.30;2.17;;;;;;;13.15;83.40;99632.28;5034499;28;20221;-73
2023/10/29 11:14:13;;;;;;;3.70;2.00;;;;;;;13.11;83.01;99623.53;5030536;28;20225;-72
2023/10/29 11:16:46;;;;;;;2.50;1.63;;;;;;;13.13;83.11;99623.16;5035506;28;20662;-73
2023/10/29 11:19:42;;;;;;;2.10;1.50;;;;;;;13.12;83.24;99630.38;5011969;28;20725;-73
2023/10/29 11:22:28;;;;;;;3.23;1.97;;;;;;;13.13;84.72;99639.06;5015280;28;20302;-73
2023/10/29 11:25:28;;;;;;;3.63;2.30;;;;;;;13.14;85.00;99633.41;5033983;28;20204;-74
2023/10/29 11:27:55;;;;;;;3.47;2.20;;;;;;;13.15;82.31;99631.53;4932101;28;20791;-73
2023/10/29 11:30:27;;;;;;;4.20;3.10;;;;;;;13.19;83.22;99629.69;5015611;28;20223;-73
2023/10/29 11:33:15;;;;;;;4.40;2.57;;;;;;;13.24;84.04;99635.38;5036206;28;20238;-72